Los Angeles, California
Current Conditions -  °F | °C
As of 3:47 AM on Friday 21 Nov 2014 (Local Time) from KCQT Reporting Station
Scattered Clouds Scattered Clouds  
Wind Chill: 57°   Ceiling: Unl
Heat Index: 57°   Visibility: 10mi
Dew Point: 52°   Wind: 3mph
Humidity: 83%   Direction: 270°W
Pressure: 29.93"   Gusts: NA
Location:  34.05°N, 118.24°W
Report Text: KCQT 211147Z AUTO 27003KT 10SM SCT080 14/11 A2993 RMK AO2 SLP135 60000 T01390111 10178 20139 56009
Loading
Personal Weather Stations






























Interactive Weather Map New forecast layout! Learn more

10-Day Weather Forecast

Advertisements
Track Severe Weather on mobile